Terminal Aerodrome Forecast
Issued by NWS

Home | Current Version | Previous Version | Text Only | Print | Product List | Glossary On
Versions: 1 2 3 4 5 6 7 8 9 10 11 12 13 14 15
000
FTAK31 PAJN 272300
TAFASI
TAF
PASI 272320Z 2800/2824 09005KT P6SM BKN045
     FM280300 13005KT P6SM BKN090
     FM280600 11005KT P6SM BKN060
     FM281000 12010G20KT P6SM -RA BKN040 OVC060
     FM281500 11015G25KT 5SM -RA BR BKN025 OVC040=

USA.gov is the U.S. government's official web portal to all federal, state and local government web resources and services.